Skip to main content

CRUISE INFORMATION RECORD AND DATA
 
NODC Cruise US-28145 Information
WOD CRUISE REFERENCE # US028145
DATA:
in WOD format US028145_XBT.dat
US028145_CTD.dat
in 'csv' format US028145_XBT.csv
US028145_CTD.csv
METADATA:
COUNTRY UNITED STATES (US)
NODC ACCESSION NUMBER (XBT) 15500
NODC ACCESSION NUMBER (XBT) 43165
NODC ACCESSION NUMBER (CTD) 15716
NODC ACCESSION NUMBER (CTD) 19189
SHIP NAME (15500) RONALD H. BROWN (NOAA ship;R/V;c.s.WTEC; built 04.1997; IMO9105786)
INSTITUTE (43165) US DOC NOAA CLIMATE PROGRAM OFFICE (CPO)
PROJECT (15500) GTSPP (GLOBAL TEMPERATURE-SALINITY PROFILE PROGRAM)
PROJECT (43165) GTSPP (GLOBAL TEMPERATURE-SALINITY PROFILE PROGRAM)
ORIGINATORS CRUISE CODE (XBT) WTEC
PRIMARY INVESTIGATORS  
All Parameters SNOWDEN; DERRICK
SUBMITTING INFORMATION (43165)  
SUBMITTING INSTITUTE US DOC NOAA CLIMATE PROGRAM OFFICE (CPO)
SUBMITTING INVESTIGATOR SNOWDEN; DERRICK
SUBMISSION DATE 7/7/2008
DATE OF FIRST CAST 5/ 3/2007
DATE OF LAST CAST 5/23/2007
TOTAL NUMBER OF CASTS 92
Temperature [t] PROFILES 92
Salinity [s] PROFILES 37
Oxygen [o] PROFILES 4
Pressure [w] PROFILES 4
UNIQUE CAST # LATITUDE LONGITUDE DATE TIME PROBE TYPE
11672080 12.685 -55.795 5/3/2007 15.417 XBT
11448540 11.490 -38.035 5/7/2007 9.233 XBT
11046012 11.495 -38.035 5/7/2007 9.741 CTD
11448541 11.490 -38.035 5/7/2007 9.917 XBT
11448542 11.490 -38.035 5/7/2007 10.000 XBT
11448543 11.490 -38.035 5/7/2007 10.067 XBT
11448544 11.490 -38.035 5/7/2007 10.133 XBT
11046338 5.500 -23.001 5/10/2007 16.867 CTD
11672203 5.335 -23.000 5/10/2007 19.417 XBT
11672206 5.180 -23.000 5/10/2007 20.367 XBT
11046342 5.011 -23.000 5/10/2007 21.383 CTD
11672212 4.841 -23.000 5/11/2007 0.033 XBT
11672214 4.682 -23.000 5/11/2007 1.067 XBT
11046359 4.507 -22.999 5/11/2007 2.117 CTD
11672218 4.324 -22.996 5/11/2007 4.817 XBT
11672220 4.158 -22.993 5/11/2007 5.917 XBT
11046376 4.043 -22.968 5/11/2007 6.917 CTD
11672244 5.712 -22.998 5/12/2007 2.167 XBT
11672245 5.832 -22.999 5/12/2007 2.750 XBT
11046408 5.991 -23.000 5/12/2007 3.450 CTD
11448545 5.990 -22.999 5/12/2007 3.700 XBT
11448546 5.990 -22.999 5/12/2007 3.767 XBT
11448547 5.990 -22.999 5/12/2007 3.833 XBT
11448548 5.990 -22.999 5/12/2007 3.883 XBT
11672250 6.164 -23.000 5/12/2007 6.033 XBT
11672251 6.333 -23.000 5/12/2007 7.133 XBT
11046418 6.485 -23.000 5/12/2007 8.017 CTD
11672255 6.669 -23.000 5/12/2007 10.617 XBT
11672257 6.837 -23.000 5/12/2007 11.633 XBT
11046427 7.000 -23.000 5/12/2007 12.567 CTD
11672262 7.182 -23.000 5/12/2007 15.400 XBT
11672263 7.343 -23.000 5/12/2007 16.333 XBT
11046440 7.499 -23.000 5/12/2007 17.200 CTD
11672268 7.660 -23.000 5/12/2007 19.617 XBT
11672271 7.816 -23.000 5/12/2007 20.600 XBT
11046447 7.998 -23.000 5/12/2007 21.750 CTD
11672277 8.167 -23.000 5/13/2007 0.800 XBT
11672279 8.332 -23.000 5/13/2007 1.817 XBT
11046458 8.499 -22.999 5/13/2007 2.859 CTD
11448549 8.490 -22.999 5/13/2007 2.983 XBT
11448550 8.490 -22.999 5/13/2007 3.033 XBT
11448551 8.490 -22.999 5/13/2007 3.067 XBT
11448552 8.490 -22.999 5/13/2007 3.117 XBT
11448553 8.490 -22.999 5/13/2007 3.183 XBT
11672285 8.675 -23.000 5/13/2007 5.383 XBT
11672286 8.831 -23.000 5/13/2007 6.317 XBT
11046466 9.000 -23.000 5/13/2007 7.667 CTD
11672288 9.179 -23.000 5/13/2007 10.233 XBT
11672289 9.331 -23.000 5/13/2007 11.133 XBT
11046475 9.493 -23.000 5/13/2007 11.983 CTD
11672291 9.665 -23.000 5/13/2007 14.817 XBT
11672292 9.832 -23.000 5/13/2007 15.800 XBT
11046495 9.994 -22.995 5/13/2007 18.183 CTD
11672306 10.164 -23.000 5/13/2007 20.700 XBT
11672310 10.325 -23.000 5/13/2007 21.683 XBT
11046509 10.490 -23.000 5/13/2007 22.617 CTD
11672320 10.667 -23.000 5/14/2007 1.300 XBT
11672324 10.817 -23.000 5/14/2007 2.233 XBT
11046540 11.002 -23.000 5/14/2007 3.333 CTD
11672334 11.175 -23.000 5/14/2007 5.783 XBT
11672339 11.335 -23.000 5/14/2007 6.767 XBT
11046554 11.495 -23.010 5/14/2007 7.723 CTD
11448554 11.490 -23.010 5/14/2007 7.883 XBT
11448555 11.490 -23.010 5/14/2007 7.933 XBT
11448556 11.490 -23.010 5/14/2007 7.983 XBT
11448557 11.490 -23.010 5/14/2007 8.033 XBT
11672382 11.659 -23.000 5/14/2007 19.617 XBT
11672385 11.828 -23.000 5/14/2007 20.633 XBT
11672386 11.833 -23.000 5/14/2007 20.667 XBT
11046612 11.998 -23.000 5/14/2007 21.633 CTD
11672397 12.168 -23.000 5/15/2007 0.350 XBT
11672401 12.345 -23.000 5/15/2007 1.483 XBT
11046630 12.499 -23.000 5/15/2007 2.433 CTD
11672409 12.669 -23.000 5/15/2007 4.900 XBT
11046656 12.995 -23.000 5/15/2007 6.900 CTD
11046663 13.500 -23.000 5/15/2007 11.750 CTD
11046679 13.998 -23.000 5/15/2007 17.017 CTD
11046690 14.500 -23.000 5/15/2007 22.317 CTD
11046706 14.999 -22.867 5/16/2007 3.917 CTD
11046716 15.500 -22.732 5/16/2007 8.500 CTD
11046730 15.975 -22.613 5/16/2007 23.683 CTD
11046735 16.500 -22.733 5/17/2007 4.717 CTD
11046741 16.998 -22.816 5/17/2007 9.733 CTD
11046744 17.492 -22.997 5/17/2007 14.700 CTD
11046750 17.985 -23.000 5/17/2007 19.517 CTD
11046754 18.486 -23.000 5/18/2007 0.367 CTD
11046759 18.999 -23.000 5/18/2007 5.200 CTD
11046760 19.500 -23.000 5/18/2007 9.900 CTD
11046767 19.997 -23.001 5/18/2007 14.633 CTD
11046778 20.474 -23.067 5/18/2007 23.250 CTD
11046826 20.012 -37.870 5/22/2007 1.350 CTD
11046833 21.770 -44.958 5/23/2007 11.933 CTD